X  Fechar Dados meteorológicos de METAR da aviação     EDDK Cologne Bonn Airport
Temperatura
9°C Temperatura
4°C Ponto de orvalho
71% Umidade



Vento
8 KM/H
5 MPH
2 M/S
4 NÓS



200°
SSO
Condições atuais

Muito nublado Muito nublado
Pressão 1024.04 (hPa) - 30.24 (inHg)
Visibilidade 6 (milha) - 9.7 (km)
Aeroporto
Código do aeroporto EDDK

Localização: Cologne Bonn Airport
Distância: 56 (km)

Metar:
EDDK 210050Z AUTO 20004KT 9999 BKN022 09/04 Q1024 NOSIG

Hora: 2024-02-21 01:50 CET